Time;durP1;ratioP1;P1;durP2;ratioP2;P2;SDS_P1;SDS_P2;PMS_P1;PMS_P2;Temp;Humidity;BMP_temperature;BMP_pressure;BME280_temperature;BME280_humidity;BME280_pressure;Samples;Min_cycle;Max_cycle;Signal;HPM_P1;HPM_P2
2023/07/19 00:02:04;;;;;;;8.07;3.38;;;;;;;20.25;98.91;93342.91;5082721;28;20052;-72
2023/07/19 00:04:32;;;;;;;7.25;4.18;;;;;;;20.25;98.67;93337.69;5085642;28;20052;-73
2023/07/19 00:06:59;;;;;;;6.63;4.10;;;;;;;20.18;98.91;93331.97;5087388;28;20083;-72
2023/07/19 00:09:26;;;;;;;6.53;3.80;;;;;;;20.21;99.06;93320.22;5080721;28;20051;-72
2023/07/19 00:11:52;;;;;;;5.25;4.13;;;;;;;20.16;100.00;93321.81;5087216;28;20051;-72
2023/07/19 00:14:19;;;;;;;7.80;4.07;;;;;;;20.16;100.00;93323.63;5086783;28;20455;-73
2023/07/19 00:16:47;;;;;;;6.60;3.72;;;;;;;20.15;98.68;93322.84;5079065;28;20043;-73
2023/07/19 00:19:13;;;;;;;5.80;3.60;;;;;;;20.12;98.19;93323.41;5085212;28;20048;-72
2023/07/19 00:21:41;;;;;;;7.78;3.92;;;;;;;20.07;97.92;93323.41;5087150;28;20113;-72
2023/07/19 00:24:08;;;;;;;6.30;3.88;;;;;;;20.01;98.51;93319.25;5084459;28;20451;-72
2023/07/19 00:26:35;;;;;;;5.43;3.60;;;;;;;19.95;98.66;93330.72;5083663;28;20089;-72
2023/07/19 00:29:01;;;;;;;5.82;3.28;;;;;;;19.90;99.16;93334.91;5085964;28;20551;-72
2023/07/19 00:31:28;;;;;;;7.30;3.83;;;;;;;19.85;99.65;93334.13;5083374;28;20040;-72
2023/07/19 00:33:55;;;;;;;6.50;3.38;;;;;;;19.78;100.00;93331.81;5079706;28;20043;-72
2023/07/19 00:36:21;;;;;;;6.00;3.40;;;;;;;19.77;100.00;93325.81;5084103;28;20055;-72
2023/07/19 00:38:50;;;;;;;5.40;3.47;;;;;;;19.74;100.00;93331.56;5084768;28;20044;-72
2023/07/19 00:41:18;;;;;;;4.90;3.47;;;;;;;19.70;100.00;93335.72;5084940;28;20044;-72
2023/07/19 00:43:44;;;;;;;6.15;3.85;;;;;;;19.71;100.00;93342.50;5083719;28;20052;-72
2023/07/19 00:46:11;;;;;;;6.82;4.22;;;;;;;19.69;100.00;93330.78;5086563;28;20085;-72
2023/07/19 00:48:38;;;;;;;8.20;3.58;;;;;;;19.69;100.00;93339.38;5087069;28;20129;-73
2023/07/19 00:51:05;;;;;;;6.95;4.05;;;;;;;19.65;100.00;93327.91;5085036;28;20506;-73
2023/07/19 00:53:32;;;;;;;7.65;4.03;;;;;;;19.62;100.00;93326.63;5086336;28;20874;-72
2023/07/19 00:56:00;;;;;;;6.40;4.63;;;;;;;19.64;100.00;93323.75;5086116;28;20095;-72
2023/07/19 00:58:27;;;;;;;6.25;3.88;;;;;;;19.61;100.00;93321.66;5086325;28;20070;-72
2023/07/19 01:00:54;;;;;;;8.15;4.70;;;;;;;19.61;100.00;93327.66;5085531;28;20519;-72
2023/07/19 01:03:21;;;;;;;7.50;4.25;;;;;;;19.60;100.00;93333.94;5083983;28;20044;-72
2023/07/19 01:05:48;;;;;;;6.72;3.58;;;;;;;19.57;100.00;93331.03;5085007;28;20047;-73
2023/07/19 01:08:15;;;;;;;8.25;4.22;;;;;;;19.55;100.00;93326.09;5084523;28;20136;-73
2023/07/19 01:10:42;;;;;;;6.03;4.10;;;;;;;19.49;100.00;93332.38;5082410;28;20040;-73
2023/07/19 01:13:11;;;;;;;5.88;3.40;;;;;;;19.44;100.00;93322.72;5085991;28;20066;-73
2023/07/19 01:15:40;;;;;;;5.75;3.88;;;;;;;19.36;100.00;93328.47;5084725;28;20085;-73
2023/07/19 01:18:07;;;;;;;6.72;4.22;;;;;;;19.29;100.00;93320.13;5086176;28;20477;-73
2023/07/19 01:20:34;;;;;;;7.38;3.90;;;;;;;19.30;100.00;93326.91;5085951;28;20058;-73
2023/07/19 01:23:03;;;;;;;5.57;3.95;;;;;;;19.13;100.00;93312.34;5083616;28;20047;-73
2023/07/19 01:28:15;;;;;;;6.50;3.58;;;;;;;19.18;100.00;93327.16;5086151;28;20046;-73
2023/07/19 01:30:41;;;;;;;6.13;4.20;;;;;;;19.28;100.00;93327.16;5088305;28;20117;-73
2023/07/19 01:33:08;;;;;;;5.90;4.03;;;;;;;19.34;100.00;93325.31;5088298;28;20044;-73
2023/07/19 01:35:35;;;;;;;7.47;3.65;;;;;;;19.32;100.00;93330.81;5089585;28;20048;-73
2023/07/19 01:38:03;;;;;;;6.18;3.65;;;;;;;19.30;100.00;93329.53;5089733;28;20085;-73
2023/07/19 01:40:30;;;;;;;6.20;3.55;;;;;;;19.26;100.00;93323.25;5085828;28;20048;-72
2023/07/19 01:42:57;;;;;;;7.35;3.28;;;;;;;19.19;100.00;93337.31;5089960;28;20040;-73
2023/07/19 01:45:23;;;;;;;7.70;3.38;;;;;;;19.19;100.00;93331.31;5089469;28;20551;-73
2023/07/19 01:47:50;;;;;;;7.25;4.22;;;;;;;19.18;100.00;93332.38;5089580;28;20048;-73
2023/07/19 01:50:17;;;;;;;5.78;3.67;;;;;;;19.19;100.00;93332.13;5086610;28;20452;-73
2023/07/19 01:52:44;;;;;;;5.35;3.60;;;;;;;19.08;100.00;93333.91;5088051;28;20448;-73
2023/07/19 01:55:13;;;;;;;6.55;3.95;;;;;;;19.05;100.00;93328.47;5086989;28;20048;-73
2023/07/19 01:57:39;;;;;;;5.15;3.55;;;;;;;18.99;100.00;93327.66;5089673;28;20386;-73
2023/07/19 02:00:07;;;;;;;6.32;3.80;;;;;;;18.88;100.00;93308.63;5089328;28;20102;-73
2023/07/19 02:02:34;;;;;;;5.30;3.55;;;;;;;18.93;100.00;93328.69;5086382;28;20040;-73
2023/07/19 02:05:01;;;;;;;5.45;3.70;;;;;;;18.98;100.00;93335.72;5088444;28;20048;-73
2023/07/19 02:07:27;;;;;;;5.30;3.67;;;;;;;19.00;100.00;93331.03;5086924;28;20044;-73
2023/07/19 02:09:54;;;;;;;5.03;3.25;;;;;;;19.00;100.00;93324.00;5088373;28;20093;-73
2023/07/19 02:12:22;;;;;;;5.22;3.97;;;;;;;18.92;100.00;93314.88;5089387;28;20055;-72
2023/07/19 02:14:49;;;;;;;6.40;3.80;;;;;;;18.99;100.00;93321.66;5086504;28;20036;-73
2023/07/19 02:17:15;;;;;;;7.38;3.92;;;;;;;18.93;100.00;93316.44;5088813;28;20048;-72
2023/07/19 02:19:42;;;;;;;7.65;3.72;;;;;;;18.92;100.00;93314.88;5088763;28;20040;-72
2023/07/19 02:22:09;;;;;;;8.07;4.22;;;;;;;18.80;100.00;93294.31;5086917;28;20471;-73
2023/07/19 02:24:36;;;;;;;7.13;3.97;;;;;;;18.86;100.00;93307.31;5086252;28;20146;-72
2023/07/19 02:27:03;;;;;;;10.07;4.07;;;;;;;18.80;100.00;93303.94;5089016;28;20044;-73
2023/07/19 02:29:31;;;;;;;5.68;3.40;;;;;;;18.80;100.00;93304.72;5089209;28;20036;-73
2023/07/19 02:31:58;;;;;;;7.55;3.80;;;;;;;18.75;100.00;93299.50;5086278;28;20382;-73
2023/07/19 02:34:24;;;;;;;6.88;3.58;;;;;;;18.59;100.00;93277.09;5088497;28;20048;-72
2023/07/19 02:36:51;;;;;;;8.63;4.40;;;;;;;18.68;100.00;93293.78;5088145;28;20108;-72
2023/07/19 02:39:20;;;;;;;7.82;4.32;;;;;;;18.70;100.00;93294.28;5087928;28;20040;-72
2023/07/19 02:41:46;;;;;;;6.15;4.20;;;;;;;18.71;100.00;93290.66;5088589;28;20129;-72
2023/07/19 02:44:13;;;;;;;5.72;3.80;;;;;;;18.74;100.00;93289.38;5087770;28;20105;-72
2023/07/19 02:46:41;;;;;;;8.88;4.47;;;;;;;18.72;100.00;93291.44;5083772;28;20047;-73
2023/07/19 02:49:08;;;;;;;6.57;3.90;;;;;;;18.60;100.00;93276.09;5088731;28;20088;-73
2023/07/19 02:51:34;;;;;;;7.28;4.10;;;;;;;18.58;100.00;93286.75;5088396;28;20531;-72
2023/07/19 02:54:01;;;;;;;7.22;4.20;;;;;;;18.52;100.00;93285.16;5084661;28;20497;-72
2023/07/19 02:56:28;;;;;;;7.43;4.00;;;;;;;18.47;100.00;93278.13;5086564;28;20048;-72
2023/07/19 02:58:55;;;;;;;7.10;3.90;;;;;;;18.45;100.00;93290.59;5085926;28;20048;-75
2023/07/19 03:01:21;;;;;;;6.63;4.00;;;;;;;18.46;100.00;93286.19;5088311;28;20946;-75
2023/07/19 03:03:50;;;;;;;7.45;3.95;;;;;;;18.46;100.00;93281.75;5086364;28;20379;-75
2023/07/19 03:06:18;;;;;;;6.28;4.05;;;;;;;18.37;100.00;93278.13;5083209;28;20101;-75
2023/07/19 03:08:45;;;;;;;6.03;4.35;;;;;;;18.38;100.00;93277.06;5088562;28;20040;-74
2023/07/19 03:11:11;;;;;;;9.35;4.22;;;;;;;18.32;100.00;93271.06;5088469;28;20040;-74
2023/07/19 03:13:38;;;;;;;6.80;4.47;;;;;;;18.31;100.00;93269.50;5086456;28;20059;-74
2023/07/19 03:16:06;;;;;;;9.98;4.80;;;;;;;18.31;100.00;93269.50;5088258;28;20047;-75
2023/07/19 03:18:32;;;;;;;7.47;4.35;;;;;;;18.30;100.00;93268.72;5087719;28;20040;-75
2023/07/19 03:21:02;;;;;;;10.20;4.43;;;;;;;18.26;100.00;93259.88;5084560;28;20048;-75
2023/07/19 03:23:31;;;;;;;7.57;3.88;;;;;;;18.36;100.00;93273.94;5086619;28;20054;-74
2023/07/19 03:25:58;;;;;;;8.50;4.20;;;;;;;18.29;100.00;93261.19;5085995;28;20054;-74
2023/07/19 03:28:25;;;;;;;8.90;4.70;;;;;;;18.33;100.00;93256.25;5087321;28;20048;-74
2023/07/19 03:30:54;;;;;;;7.60;4.75;;;;;;;18.26;100.00;93253.91;5087577;28;20101;-74
2023/07/19 03:33:21;;;;;;;8.25;4.47;;;;;;;18.32;100.00;93252.09;5084177;28;20054;-74
2023/07/19 03:35:48;;;;;;;8.32;4.13;;;;;;;18.26;100.00;93249.50;5087260;28;20040;-75
2023/07/19 03:38:16;;;;;;;7.65;4.00;;;;;;;18.23;100.00;93246.63;5087601;28;20054;-75
2023/07/19 03:40:43;;;;;;;6.80;4.07;;;;;;;18.25;100.00;93241.94;5087171;28;20048;-74
2023/07/19 03:43:10;;;;;;;8.63;4.07;;;;;;;18.21;100.00;93235.69;5085470;28;20517;-74
2023/07/19 03:45:37;;;;;;;9.40;4.57;;;;;;;18.22;100.00;93235.44;5087782;28;20040;-74
2023/07/19 03:48:04;;;;;;;9.35;4.40;;;;;;;18.18;100.00;93225.81;5086696;28;20051;-74
2023/07/19 03:50:31;;;;;;;11.75;3.90;;;;;;;18.01;100.00;93203.38;5085976;28;20048;-74
2023/07/19 03:52:58;;;;;;;5.75;3.50;;;;;;;18.17;100.00;93217.22;5087693;28;20562;-75
2023/07/19 03:55:26;;;;;;;6.20;3.72;;;;;;;18.29;100.00;93224.78;5086908;28;20044;-74
2023/07/19 03:57:52;;;;;;;7.95;4.50;;;;;;;18.25;100.00;93214.13;5086943;28;20124;-75
2023/07/19 04:00:21;;;;;;;6.60;3.97;;;;;;;18.36;100.00;93227.13;5088059;28;20062;-74
2023/07/19 04:02:48;;;;;;;6.45;3.92;;;;;;;18.39;100.00;93229.22;5088810;28;20048;-74
2023/07/19 04:05:15;;;;;;;7.70;4.68;;;;;;;18.45;100.00;93230.78;5089123;28;20451;-74
2023/07/19 04:07:42;;;;;;;8.15;4.25;;;;;;;18.44;100.00;93216.22;5089865;28;20050;-74
2023/07/19 04:10:10;;;;;;;9.45;6.30;;;;;;;18.49;100.00;93223.25;5090009;28;20048;-74
2023/07/19 04:12:38;;;;;;;8.48;4.28;;;;;;;18.54;100.00;93218.06;5088235;28;20105;-74
2023/07/19 04:15:05;;;;;;;6.47;4.40;;;;;;;18.63;100.00;93215.72;5089003;28;20120;-74
2023/07/19 04:17:32;;;;;;;7.13;4.10;;;;;;;18.70;100.00;93209.22;5090492;28;20044;-74
2023/07/19 04:19:59;;;;;;;6.53;4.13;;;;;;;18.79;100.00;93217.28;5089803;28;20043;-74
2023/07/19 04:22:25;;;;;;;7.80;4.05;;;;;;;18.91;100.00;93214.44;5089435;28;20048;-74
2023/07/19 04:24:54;;;;;;;6.95;4.35;;;;;;;18.95;100.00;93214.69;5088778;28;20117;-75
2023/07/19 04:27:21;;;;;;;5.97;3.95;;;;;;;19.03;100.00;93219.38;5088873;28;20075;-74
2023/07/19 04:29:49;;;;;;;8.82;4.70;;;;;;;19.04;100.00;93217.56;5091258;28;20501;-74
2023/07/19 04:32:16;;;;;;;7.38;4.38;;;;;;;19.12;100.00;93219.63;5086320;28;20489;-74
2023/07/19 04:34:43;;;;;;;6.93;3.78;;;;;;;19.19;100.00;93214.94;5085343;28;20093;-74
2023/07/19 04:37:10;;;;;;;8.27;4.53;;;;;;;19.30;100.00;93214.94;5085932;28;20097;-74
2023/07/19 04:39:36;;;;;;;6.40;4.47;;;;;;;19.41;100.00;93208.66;5090846;28;20048;-74
2023/07/19 04:42:04;;;;;;;10.02;5.13;;;;;;;19.44;100.00;93205.50;5088982;28;20044;-74
2023/07/19 04:44:30;;;;;;;9.73;5.55;;;;;;;19.36;100.00;93213.88;5099214;28;20047;-74
2023/07/19 04:46:59;;;;;;;11.52;5.45;;;;;;;19.35;100.00;93204.50;5089371;28;20098;-74
2023/07/19 04:49:26;;;;;;;8.75;5.60;;;;;;;19.16;100.00;93215.47;5099371;28;20040;-74
2023/07/19 04:51:53;;;;;;;12.27;5.20;;;;;;;19.19;100.00;93227.16;5106371;28;20058;-74
2023/07/19 04:54:20;;;;;;;10.98;5.93;;;;;;;19.19;100.00;93204.53;5088799;28;20833;-74
2023/07/19 04:56:46;;;;;;;9.93;6.10;;;;;;;19.30;100.00;93217.53;5099148;28;20048;-74
2023/07/19 04:59:13;;;;;;;8.70;4.80;;;;;;;19.50;100.00;93214.09;5105965;28;20101;-75
2023/07/19 05:01:40;;;;;;;10.35;5.70;;;;;;;19.65;100.00;93218.47;5108271;28;20047;-75
2023/07/19 05:04:08;;;;;;;12.02;6.50;;;;;;;19.73;100.00;93214.53;5099533;28;20051;-75
2023/07/19 05:06:35;;;;;;;12.38;5.95;;;;;;;19.86;100.00;93223.63;5094972;28;20052;-75
2023/07/19 05:09:03;;;;;;;9.93;5.15;;;;;;;19.93;100.00;93221.50;5087611;28;20051;-74
2023/07/19 05:11:30;;;;;;;16.10;5.72;;;;;;;19.99;100.00;93217.06;5087925;28;20044;-75
2023/07/19 05:13:57;;;;;;;11.93;5.97;;;;;;;20.09;100.00;93218.84;5110248;28;20500;-74
2023/07/19 05:16:22;;;;;;;14.65;6.15;;;;;;;20.19;100.00;93223.22;5109966;28;20047;-74
2023/07/19 05:18:50;;;;;;;;;;;;;;;20.36;100.00;93207.22;5095287;28;20050;-74
2023/07/19 05:21:19;;;;;;;18.60;6.88;;;;;;;20.42;100.00;93211.34;5091745;28;19923;-74
2023/07/19 05:23:46;;;;;;;12.88;6.70;;;;;;;20.61;100.00;93208.88;5092108;28;20394;-74
2023/07/19 05:26:12;;;;;;;14.25;7.30;;;;;;;20.71;100.00;93192.34;5101922;28;20096;-75
2023/07/19 05:28:39;;;;;;;12.07;6.20;;;;;;;20.96;100.00;93209.66;5103857;28;20460;-75
2023/07/19 05:31:08;;;;;;;14.07;6.00;;;;;;;21.10;100.00;93216.84;5090355;28;20096;-75
2023/07/19 05:33:35;;;;;;;13.98;6.22;;;;;;;21.29;100.00;93227.38;5091243;28;20097;-75
2023/07/19 05:36:02;;;;;;;11.15;5.95;;;;;;;21.40;99.43;93220.25;5091920;28;20044;-75
2023/07/19 05:38:32;;;;;;;11.10;5.25;;;;;;;21.67;96.63;93223.34;5090008;28;20048;-75
2023/07/19 05:41:00;;;;;;;10.13;6.38;;;;;;;21.84;94.28;93213.25;5096045;28;20052;-74
2023/07/19 05:43:27;;;;;;;9.77;5.18;;;;;;;22.07;93.47;93213.50;5089207;28;20489;-75
2023/07/19 05:45:53;;;;;;;13.90;6.03;;;;;;;22.26;93.21;93207.50;5091699;28;20055;-75
2023/07/19 05:48:20;;;;;;;9.82;5.10;;;;;;;22.46;92.57;93184.72;5110145;28;20148;-75
2023/07/19 05:50:47;;;;;;;13.68;5.47;;;;;;;22.62;90.54;93175.59;5109898;28;20097;-75
2023/07/19 05:53:13;;;;;;;7.43;4.10;;;;;;;22.83;89.09;93186.50;5102479;28;20451;-75
2023/07/19 05:55:41;;;;;;;10.57;4.70;;;;;;;23.07;87.42;93198.72;5096088;28;20059;-78
2023/07/19 05:58:08;;;;;;;12.07;4.65;;;;;;;23.33;86.35;93200.88;5090729;28;20044;-74
2023/07/19 06:00:35;;;;;;;7.78;4.07;;;;;;;23.61;82.10;93213.25;5087449;28;20040;-74
2023/07/19 06:03:02;;;;;;;7.78;4.43;;;;;;;23.81;81.77;93212.06;5094188;28;20117;-73
2023/07/19 06:05:28;;;;;;;10.10;4.07;;;;;;;24.09;80.27;93214.69;5106230;28;20429;-73
2023/07/19 06:07:55;;;;;;;9.02;4.28;;;;;;;24.33;76.18;93218.91;5085157;28;20109;-73
2023/07/19 06:10:22;;;;;;;9.80;4.90;;;;;;;24.61;76.61;93215.41;5090218;28;20489;-73
2023/07/19 06:12:51;;;;;;;9.20;4.57;;;;;;;24.89;76.03;93217.94;5089967;28;20105;-73
2023/07/19 06:15:18;;;;;;;9.40;4.75;;;;;;;25.21;74.65;93222.16;5088317;28;20887;-73
2023/07/19 06:17:44;;;;;;;10.55;4.85;;;;;;;25.43;70.12;93223.19;5095765;28;20044;-73
2023/07/19 06:20:13;;;;;;;13.38;4.68;;;;;;;25.71;71.35;93217.75;5099998;28;20044;-73
2023/07/19 06:22:40;;;;;;;11.25;5.28;;;;;;;25.97;69.89;93216.28;5085513;28;20509;-73
2023/07/19 06:25:08;;;;;;;15.52;5.85;;;;;;;25.87;71.17;93210.22;5102485;28;20047;-73
2023/07/19 06:27:34;;;;;;;15.32;7.22;;;;;;;26.13;72.14;93211.34;5086572;28;20041;-73
2023/07/19 06:30:03;;;;;;;15.43;6.18;;;;;;;26.22;75.41;93206.88;5106196;28;20115;-73
2023/07/19 06:32:30;;;;;;;18.15;7.57;;;;;;;25.76;75.28;93201.06;5095740;28;20044;-73
2023/07/19 06:34:57;;;;;;;14.75;6.28;;;;;;;25.69;76.10;93211.25;5090210;28;20074;-72
2023/07/19 06:37:23;;;;;;;14.18;6.50;;;;;;;25.64;75.58;93212.16;5090169;28;20117;-73
2023/07/19 06:39:50;;;;;;;11.43;5.93;;;;;;;26.04;75.90;93194.75;5088469;28;20040;-72
2023/07/19 06:42:17;;;;;;;14.48;7.28;;;;;;;26.49;72.58;93199.78;5093485;28;20097;-73
2023/07/19 06:44:43;;;;;;;13.07;5.85;;;;;;;26.40;71.57;93199.00;5108073;28;20044;-74
2023/07/19 06:47:13;;;;;;;17.52;6.47;;;;;;;26.28;70.92;93204.88;5101188;28;20505;-74
2023/07/19 06:49:39;;;;;;;15.70;6.45;;;;;;;26.71;69.28;93203.34;5094464;28;20058;-74
2023/07/19 06:52:07;;;;;;;15.93;5.40;;;;;;;27.02;69.11;93191.09;5107898;28;20097;-74
2023/07/19 06:54:33;;;;;;;14.50;5.40;;;;;;;27.13;69.38;93200.19;5096811;28;20090;-74
2023/07/19 06:57:00;;;;;;;16.25;6.80;;;;;;;27.57;65.55;93207.16;5092395;28;20109;-75
2023/07/19 06:59:28;;;;;;;16.23;6.13;;;;;;;28.05;64.81;93209.75;5089436;28;20048;-75
2023/07/19 07:01:55;;;;;;;14.05;4.63;;;;;;;28.30;62.24;93218.63;5089652;28;20052;-74
2023/07/19 07:04:23;;;;;;;17.15;5.15;;;;;;;28.63;61.82;93214.50;5086957;28;20439;-74
2023/07/19 07:06:50;;;;;;;16.13;6.63;;;;;;;29.00;59.59;93217.31;5091949;28;20093;-74
2023/07/19 07:09:17;;;;;;;14.75;5.55;;;;;;;29.22;57.40;93210.09;5089335;28;20106;-75
2023/07/19 07:11:44;;;;;;;10.98;4.70;;;;;;;29.49;54.42;93218.53;5089161;28;20062;-74
2023/07/19 07:14:11;;;;;;;11.27;4.55;;;;;;;29.55;54.74;93217.22;5084637;28;20040;-75
2023/07/19 07:16:37;;;;;;;15.35;4.85;;;;;;;29.82;54.24;93222.19;5089717;28;20051;-74
2023/07/19 07:19:04;;;;;;;11.50;4.05;;;;;;;29.71;53.93;93219.22;5092820;28;20128;-75
2023/07/19 07:21:33;;;;;;;16.30;3.60;;;;;;;29.93;50.99;93210.03;5089228;28;20055;-75
2023/07/19 07:24:00;;;;;;;9.77;4.38;;;;;;;30.30;52.08;93219.84;5089016;28;20052;-75
2023/07/19 07:26:26;;;;;;;18.80;4.65;;;;;;;30.68;52.20;93220.50;5089717;28;20051;-75
2023/07/19 07:28:53;;;;;;;10.77;4.70;;;;;;;30.97;48.98;93213.34;5096905;28;20056;-75
2023/07/19 07:31:20;;;;;;;17.48;5.15;;;;;;;30.56;50.85;93216.03;5107661;28;20051;-74
2023/07/19 07:33:46;;;;;;;19.83;6.03;;;;;;;30.10;51.93;93213.59;5094612;28;21325;-74
2023/07/19 07:36:13;;;;;;;23.08;6.38;;;;;;;30.16;53.97;93211.50;5093350;28;20109;-74
2023/07/19 07:38:42;;;;;;;17.25;5.88;;;;;;;30.08;52.99;93205.19;5093448;28;20051;-74
2023/07/19 07:41:11;;;;;;;19.38;7.43;;;;;;;30.30;52.80;93203.94;5088280;28;20048;-75
2023/07/19 07:43:38;;;;;;;26.48;5.70;;;;;;;30.26;53.94;93206.50;5087955;28;20051;-74
2023/07/19 07:46:04;;;;;;;20.80;6.13;;;;;;;29.77;53.81;93204.66;5093251;28;20051;-74
2023/07/19 07:48:32;;;;;;;28.83;7.18;;;;;;;29.76;54.93;93187.19;5085163;28;20063;-74
2023/07/19 07:50:59;;;;;;;17.55;6.25;;;;;;;30.08;52.33;93189.28;5088478;28;20050;-74
2023/07/19 07:53:25;;;;;;;16.10;4.90;;;;;;;30.52;51.72;93184.13;5085189;28;20052;-74
2023/07/19 07:55:54;;;;;;;22.25;5.53;;;;;;;30.87;51.88;93188.06;5096390;28;20040;-74
2023/07/19 07:58:21;;;;;;;20.42;5.60;;;;;;;31.03;48.59;93172.19;5088380;28;20050;-74
2023/07/19 08:00:48;;;;;;;13.70;5.28;;;;;;;31.10;48.84;93176.13;5088712;28;20040;-74
2023/07/19 08:03:14;;;;;;;11.05;4.13;;;;;;;31.37;46.67;93157.88;5093982;28;20044;-73
2023/07/19 08:05:41;;;;;;;16.17;4.93;;;;;;;31.89;49.98;93171.97;5085953;28;20080;-73
2023/07/19 08:08:08;;;;;;;16.23;5.00;;;;;;;32.27;46.07;93172.38;5094923;28;20047;-73
2023/07/19 08:10:38;;;;;;;13.43;3.75;;;;;;;32.54;42.89;93180.50;5102740;28;20470;-73
2023/07/19 08:13:06;;;;;;;11.55;3.85;;;;;;;32.91;43.49;93180.03;5093772;28;20048;-73
2023/07/19 08:15:33;;;;;;;9.73;3.47;;;;;;;33.26;42.43;93178.38;5085984;28;20089;-73
2023/07/19 08:18:00;;;;;;;11.70;4.63;;;;;;;33.10;43.14;93175.06;5089379;28;20089;-73
2023/07/19 08:20:27;;;;;;;7.57;3.58;;;;;;;33.07;43.18;93175.78;5091761;28;20054;-73
2023/07/19 08:22:53;;;;;;;8.65;3.70;;;;;;;33.47;42.26;93161.22;5087962;28;20059;-73
2023/07/19 08:25:21;;;;;;;11.98;3.50;;;;;;;33.85;43.00;93174.72;5087587;28;20101;-73
2023/07/19 08:27:48;;;;;;;9.68;3.95;;;;;;;33.35;40.29;93156.84;5080650;28;20128;-73
2023/07/19 08:30:16;;;;;;;7.55;4.20;;;;;;;32.64;41.82;93144.59;5094110;28;20048;-73
2023/07/19 08:32:45;;;;;;;7.50;3.58;;;;;;;32.49;41.83;93165.59;5095409;28;20498;-73
2023/07/19 08:35:11;;;;;;;10.07;3.17;;;;;;;33.03;44.07;93163.19;5094167;28;20054;-73
2023/07/19 08:37:38;;;;;;;8.52;3.67;;;;;;;33.59;41.29;93166.38;5090554;28;20051;-73
2023/07/19 08:40:07;;;;;;;7.90;3.15;;;;;;;34.00;41.59;93170.38;5090550;28;20094;-73
2023/07/19 08:42:34;;;;;;;11.20;3.53;;;;;;;34.35;39.52;93168.56;5088451;28;20048;-73
2023/07/19 08:45:00;;;;;;;7.93;3.95;;;;;;;34.35;38.28;93169.34;5084727;28;20867;-73
2023/07/19 08:47:31;;;;;;;8.88;3.58;;;;;;;33.22;38.06;93139.53;5093402;28;20127;-73
2023/07/19 08:49:59;;;;;;;8.65;3.53;;;;;;;33.42;38.80;93154.28;5087808;28;20090;-73
2023/07/19 08:52:28;;;;;;;11.30;3.50;;;;;;;33.26;41.45;93156.31;5087776;28;20090;-73
2023/07/19 08:54:55;;;;;;;10.30;4.07;;;;;;;32.89;39.95;93146.94;5090069;28;20593;-73
2023/07/19 08:57:21;;;;;;;7.00;3.35;;;;;;;32.78;39.48;93146.75;5087852;28;20350;-73
2023/07/19 08:59:49;;;;;;;6.60;3.45;;;;;;;33.40;42.23;93143.25;5088396;28;20805;-73
2023/07/19 09:02:15;;;;;;;6.53;3.85;;;;;;;33.91;41.85;93138.66;5091017;28;20649;-73
2023/07/19 09:05:07;;;;;;;7.55;3.60;;;;;;;34.57;40.06;93131.47;5094620;28;20051;-74
2023/07/19 09:07:34;;;;;;;4.70;3.05;;;;;;;34.11;38.87;93130.56;5101292;28;20106;-73
2023/07/19 09:10:01;;;;;;;4.60;2.72;;;;;;;34.48;37.83;93145.84;5089296;28;20116;-73
2023/07/19 09:12:36;;;;;;;5.20;3.28;;;;;;;34.86;39.62;93129.09;5088021;28;20048;-73
2023/07/19 09:15:03;;;;;;;6.30;3.05;;;;;;;35.01;35.88;93120.09;5085495;28;20067;-73
2023/07/19 09:17:30;;;;;;;7.47;2.85;;;;;;;35.43;38.84;93130.75;5089992;28;21432;-73
2023/07/19 09:19:58;;;;;;;4.53;2.67;;;;;;;35.67;39.25;93131.31;5092622;28;20455;-73
2023/07/19 09:22:28;;;;;;;5.78;4.18;;;;;;;35.88;38.65;93120.00;5087231;28;20055;-73
2023/07/19 09:24:57;;;;;;;6.72;3.28;;;;;;;36.20;40.11;93122.09;5083927;28;20048;-73
2023/07/19 09:27:27;;;;;;;9.23;3.63;;;;;;;36.43;39.32;93117.56;5090122;28;20052;-73
2023/07/19 09:29:53;;;;;;;7.07;3.67;;;;;;;36.67;39.56;93124.16;5083571;28;20052;-73
2023/07/19 09:32:22;;;;;;;7.32;3.70;;;;;;;36.76;37.38;93121.13;5092093;28;20821;-73
2023/07/19 09:34:48;;;;;;;6.22;3.85;;;;;;;36.96;38.31;93126.09;5089263;28;20091;-73
2023/07/19 09:37:20;;;;;;;5.68;3.30;;;;;;;37.13;37.27;93124.63;5099542;28;20048;-73
2023/07/19 09:39:47;;;;;;;5.60;3.75;;;;;;;37.35;38.58;93122.72;5098555;28;20044;-73
2023/07/19 09:42:15;;;;;;;5.05;2.92;;;;;;;37.51;36.56;93118.84;5093328;28;20047;-73
2023/07/19 09:44:42;;;;;;;4.80;2.90;;;;;;;37.61;34.92;93118.09;5105197;28;20131;-73
2023/07/19 09:47:08;;;;;;;5.07;3.33;;;;;;;37.79;34.52;93114.63;5103730;28;20052;-73
2023/07/19 09:49:36;;;;;;;5.28;3.47;;;;;;;37.73;34.05;93111.59;5095205;28;20051;-73
2023/07/19 09:52:04;;;;;;;4.95;3.13;;;;;;;37.66;33.56;93122.31;5091902;28;20511;-73
2023/07/19 09:54:33;;;;;;;4.63;2.92;;;;;;;37.66;33.65;93106.25;5091907;28;20452;-72
2023/07/19 09:57:02;;;;;;;5.82;2.90;;;;;;;37.78;33.23;93105.84;5087193;28;20451;-72
2023/07/19 09:59:33;;;;;;;5.60;2.72;;;;;;;37.65;34.10;93102.78;5107365;28;20050;-72
2023/07/19 10:02:00;;;;;;;10.45;3.13;;;;;;;37.82;34.21;93109.25;5099371;28;20477;-72
2023/07/19 10:04:28;;;;;;;4.15;2.83;;;;;;;37.91;32.26;93108.09;5090649;28;20044;-72
2023/07/19 10:07:03;;;;;;;4.43;2.95;;;;;;;38.02;33.25;93103.47;5094041;28;20051;-75
2023/07/19 10:09:37;;;;;;;3.85;2.50;;;;;;;38.01;33.26;93098.47;5088033;28;20047;-75
2023/07/19 10:12:09;;;;;;;3.72;2.50;;;;;;;36.95;31.72;93081.75;5099219;28;20048;-75
2023/07/19 10:14:35;;;;;;;3.90;2.55;;;;;;;37.35;32.25;93095.94;5103915;28;20044;-75
2023/07/19 10:17:04;;;;;;;3.67;2.72;;;;;;;37.19;29.48;93093.63;5094563;28;20052;-75
2023/07/19 10:19:31;;;;;;;4.65;2.42;;;;;;;37.46;33.18;93077.16;5091012;28;20402;-75
2023/07/19 10:22:03;;;;;;;4.97;2.53;;;;;;;37.79;32.42;93090.50;5094842;28;20616;-75
2023/07/19 10:24:30;;;;;;;5.32;2.42;;;;;;;38.09;32.32;93087.38;5092016;28;20048;-75
2023/07/19 10:27:01;;;;;;;3.80;2.40;;;;;;;38.19;31.37;93079.66;5090251;28;20044;-75
2023/07/19 10:29:37;;;;;;;8.07;2.90;;;;;;;38.17;31.24;93077.38;5096290;28;20043;-75
2023/07/19 10:32:05;;;;;;;4.35;2.42;;;;;;;38.30;30.35;93074.25;5089954;28;20044;-75
2023/07/19 10:34:32;;;;;;;3.97;2.50;;;;;;;38.40;31.77;93075.34;5096413;28;20047;-75
2023/07/19 10:37:02;;;;;;;4.45;2.15;;;;;;;38.36;31.59;93083.44;5090459;28;20048;-75
2023/07/19 10:39:29;;;;;;;5.25;2.58;;;;;;;38.53;30.82;93079.09;5095408;28;21137;-75
2023/07/19 10:41:55;;;;;;;4.63;2.88;;;;;;;38.54;30.80;93080.66;5087219;28;20144;-75
2023/07/19 10:44:24;;;;;;;5.32;2.80;;;;;;;38.39;30.86;93073.84;5092388;28;20093;-75
2023/07/19 10:46:51;;;;;;;6.20;3.38;;;;;;;38.57;31.29;93073.75;5090282;28;20047;-75
2023/07/19 10:49:18;;;;;;;4.88;2.60;;;;;;;38.69;31.12;93067.16;5093785;28;20467;-75
2023/07/19 10:51:53;;;;;;;6.05;2.58;;;;;;;38.81;30.99;93066.69;5090037;28;20052;-75
2023/07/19 10:54:19;;;;;;;4.18;2.75;;;;;;;38.99;30.98;93069.25;5091298;28;20505;-75
2023/07/19 10:56:48;;;;;;;3.50;2.55;;;;;;;39.20;30.72;93069.47;5093706;28;20592;-75
2023/07/19 10:59:14;;;;;;;4.53;2.58;;;;;;;38.56;27.11;93074.91;5090597;28;20592;-75
2023/07/19 11:01:43;;;;;;;4.05;2.60;;;;;;;37.94;29.24;93054.47;5090171;28;20047;-75
2023/07/19 11:04:09;;;;;;;4.82;2.45;;;;;;;38.44;28.01;93071.50;5093463;28;20105;-75
2023/07/19 11:06:38;;;;;;;4.78;2.38;;;;;;;38.61;26.96;93061.06;5094037;28;20047;-75
2023/07/19 11:09:06;;;;;;;5.35;2.78;;;;;;;38.14;28.46;93062.06;5092477;28;20604;-75
2023/07/19 11:11:36;;;;;;;3.50;2.05;;;;;;;38.09;27.71;93065.91;5093680;28;20048;-75
2023/07/19 11:14:02;;;;;;;3.80;2.40;;;;;;;38.36;28.34;93064.66;5093971;28;20898;-75
2023/07/19 11:16:29;;;;;;;4.78;2.25;;;;;;;36.55;28.60;93044.97;5092229;28;20505;-75
2023/07/19 11:18:58;;;;;;;5.82;2.90;;;;;;;37.14;28.88;93057.31;5091839;28;20047;-75
2023/07/19 11:21:25;;;;;;;4.57;2.45;;;;;;;36.87;30.16;93056.88;5090417;28;20044;-75
2023/07/19 11:23:52;;;;;;;3.90;2.42;;;;;;;36.45;30.49;93049.19;5090262;28;20963;-75
2023/07/19 11:26:19;;;;;;;3.60;2.40;;;;;;;36.46;29.97;93045.34;5090835;28;20941;-75
2023/07/19 11:28:47;;;;;;;3.50;2.20;;;;;;;36.98;30.77;93057.66;5090711;28;20043;-75
2023/07/19 11:31:32;;;;;;;3.50;1.77;;;;;;;37.40;27.44;93057.28;5091959;28;20083;-75